sensor_id;sensor_type;location;lat;lon;timestamp;P1;P2;P0
55686;PMS5003;41911;52.362;4.978;2023-05-10T00:00:30;31.0;31.0;
55686;PMS5003;41911;52.362;4.978;2023-05-10T00:01:01;36.0;34.0;
55686;PMS5003;41911;52.362;4.978;2023-05-10T00:01:32;31.0;31.0;
55686;PMS5003;41911;52.362;4.978;2023-05-10T00:02:02;39.0;38.0;
55686;PMS5003;41911;52.362;4.978;2023-05-10T00:02:34;34.0;33.0;
55686;PMS5003;41911;52.362;4.978;2023-05-10T00:03:05;36.0;34.0;
55686;PMS5003;41911;52.362;4.978;2023-05-10T00:03:36;34.0;32.0;
55686;PMS5003;41911;52.362;4.978;2023-05-10T00:04:07;35.0;34.0;
55686;PMS5003;41911;52.362;4.978;2023-05-10T00:04:38;35.0;34.0;
55686;PMS5003;41911;52.362;4.978;2023-05-10T00:05:09;37.0;36.0;
55686;PMS5003;41911;52.362;4.978;2023-05-10T00:05:45;47.0;43.0;
55686;PMS5003;41911;52.362;4.978;2023-05-10T00:06:16;40.0;38.0;
55686;PMS5003;41911;52.362;4.978;2023-05-10T00:06:47;36.0;34.0;
55686;PMS5003;41911;52.362;4.978;2023-05-10T00:07:18;37.0;36.0;
55686;PMS5003;41911;52.362;4.978;2023-05-10T00:07:49;36.0;35.0;
55686;PMS5003;41911;52.362;4.978;2023-05-10T00:08:20;39.0;35.0;
55686;PMS5003;41911;52.362;4.978;2023-05-10T00:08:51;35.0;35.0;
55686;PMS5003;41911;52.362;4.978;2023-05-10T00:09:22;37.0;37.0;
55686;PMS5003;41911;52.362;4.978;2023-05-10T00:09:53;44.0;42.0;
55686;PMS5003;41911;52.362;4.978;2023-05-10T00:10:24;38.0;37.0;
55686;PMS5003;41911;52.362;4.978;2023-05-10T00:10:55;36.0;36.0;
55686;PMS5003;41911;52.362;4.978;2023-05-10T00:11:26;42.0;41.0;
55686;PMS5003;41911;52.362;4.978;2023-05-10T00:11:57;36.0;35.0;
55686;PMS5003;41911;52.362;4.978;2023-05-10T00:12:28;37.0;36.0;
55686;PMS5003;41911;52.362;4.978;2023-05-10T00:12:59;32.0;31.0;
55686;PMS5003;41911;52.362;4.978;2023-05-10T00:13:35;44.0;41.0;
55686;PMS5003;41911;52.362;4.978;2023-05-10T00:14:06;43.0;41.0;
55686;PMS5003;41911;52.362;4.978;2023-05-10T00:14:37;40.0;36.0;
55686;PMS5003;41911;52.362;4.978;2023-05-10T00:15:08;40.0;39.0;
55686;PMS5003;41911;52.362;4.978;2023-05-10T00:15:39;36.0;30.0;
55686;PMS5003;41911;52.362;4.978;2023-05-10T00:16:10;36.0;34.0;
55686;PMS5003;41911;52.362;4.978;2023-05-10T00:16:42;39.0;38.0;
55686;PMS5003;41911;52.362;4.978;2023-05-10T00:17:12;37.0;36.0;
55686;PMS5003;41911;52.362;4.978;2023-05-10T00:17:44;41.0;38.0;
55686;PMS5003;41911;52.362;4.978;2023-05-10T00:18:15;35.0;35.0;
55686;PMS5003;41911;52.362;4.978;2023-05-10T00:18:46;37.0;37.0;
55686;PMS5003;41911;52.362;4.978;2023-05-10T00:19:17;41.0;40.0;
55686;PMS5003;41911;52.362;4.978;2023-05-10T00:19:48;31.0;29.0;
55686;PMS5003;41911;52.362;4.978;2023-05-10T00:20:19;40.0;40.0;
55686;PMS5003;41911;52.362;4.978;2023-05-10T00:20:50;33.0;32.0;
55686;PMS5003;41911;52.362;4.978;2023-05-10T00:21:21;37.0;35.0;
55686;PMS5003;41911;52.362;4.978;2023-05-10T00:21:52;40.0;38.0;
55686;PMS5003;41911;52.362;4.978;2023-05-10T00:22:23;44.0;41.0;
55686;PMS5003;41911;52.362;4.978;2023-05-10T00:22:53;42.0;39.0;
55686;PMS5003;41911;52.362;4.978;2023-05-10T00:23:24;41.0;38.0;
55686;PMS5003;41911;52.362;4.978;2023-05-10T00:23:55;39.0;35.0;
55686;PMS5003;41911;52.362;4.978;2023-05-10T00:24:26;40.0;38.0;
55686;PMS5003;41911;52.362;4.978;2023-05-10T00:24:57;38.0;35.0;
55686;PMS5003;41911;52.362;4.978;2023-05-10T00:25:29;48.0;47.0;
55686;PMS5003;41911;52.362;4.978;2023-05-10T00:26:00;40.0;40.0;
55686;PMS5003;41911;52.362;4.978;2023-05-10T00:26:30;38.0;38.0;
55686;PMS5003;41911;52.362;4.978;2023-05-10T00:27:01;42.0;40.0;
55686;PMS5003;41911;52.362;4.978;2023-05-10T00:27:32;40.0;39.0;
55686;PMS5003;41911;52.362;4.978;2023-05-10T00:28:03;38.0;36.0;
55686;PMS5003;41911;52.362;4.978;2023-05-10T00:28:34;40.0;35.0;
55686;PMS5003;41911;52.362;4.978;2023-05-10T00:29:05;36.0;36.0;
55686;PMS5003;41911;52.362;4.978;2023-05-10T00:29:36;34.0;32.0;
55686;PMS5003;41911;52.362;4.978;2023-05-10T00:30:07;36.0;35.0;
55686;PMS5003;41911;52.362;4.978;2023-05-10T00:30:39;45.0;42.0;
55686;PMS5003;41911;52.362;4.978;2023-05-10T00:31:10;40.0;40.0;
55686;PMS5003;41911;52.362;4.978;2023-05-10T00:31:41;46.0;44.0;
55686;PMS5003;41911;52.362;4.978;2023-05-10T00:32:12;36.0;36.0;
55686;PMS5003;41911;52.362;4.978;2023-05-10T00:32:43;39.0;35.0;
55686;PMS5003;41911;52.362;4.978;2023-05-10T00:33:15;44.0;40.0;
55686;PMS5003;41911;52.362;4.978;2023-05-10T00:33:46;37.0;36.0;
55686;PMS5003;41911;52.362;4.978;2023-05-10T00:34:17;39.0;39.0;
55686;PMS5003;41911;52.362;4.978;2023-05-10T00:34:48;37.0;36.0;
55686;PMS5003;41911;52.362;4.978;2023-05-10T00:35:19;42.0;41.0;
55686;PMS5003;41911;52.362;4.978;2023-05-10T00:35:50;40.0;38.0;
55686;PMS5003;41911;52.362;4.978;2023-05-10T00:36:21;39.0;37.0;
55686;PMS5003;41911;52.362;4.978;2023-05-10T00:36:51;39.0;37.0;
55686;PMS5003;41911;52.362;4.978;2023-05-10T00:37:22;43.0;42.0;
55686;PMS5003;41911;52.362;4.978;2023-05-10T00:37:53;38.0;37.0;
55686;PMS5003;41911;52.362;4.978;2023-05-10T00:38:25;41.0;38.0;
55686;PMS5003;41911;52.362;4.978;2023-05-10T00:38:56;41.0;39.0;
55686;PMS5003;41911;52.362;4.978;2023-05-10T00:39:27;44.0;43.0;
55686;PMS5003;41911;52.362;4.978;2023-05-10T00:39:57;40.0;40.0;
55686;PMS5003;41911;52.362;4.978;2023-05-10T00:40:28;43.0;42.0;
55686;PMS5003;41911;52.362;4.978;2023-05-10T00:41:00;37.0;37.0;
55686;PMS5003;41911;52.362;4.978;2023-05-10T00:41:31;38.0;38.0;
55686;PMS5003;41911;52.362;4.978;2023-05-10T00:42:03;37.0;36.0;
55686;PMS5003;41911;52.362;4.978;2023-05-10T00:42:34;39.0;37.0;
55686;PMS5003;41911;52.362;4.978;2023-05-10T00:43:04;41.0;39.0;
55686;PMS5003;41911;52.362;4.978;2023-05-10T00:43:35;43.0;41.0;
55686;PMS5003;41911;52.362;4.978;2023-05-10T00:44:06;46.0;43.0;
55686;PMS5003;41911;52.362;4.978;2023-05-10T00:44:37;38.0;37.0;
55686;PMS5003;41911;52.362;4.978;2023-05-10T00:45:08;44.0;41.0;
55686;PMS5003;41911;52.362;4.978;2023-05-10T00:45:40;41.0;40.0;
55686;PMS5003;41911;52.362;4.978;2023-05-10T00:46:11;44.0;42.0;
55686;PMS5003;41911;52.362;4.978;2023-05-10T00:46:44;46.0;45.0;
55686;PMS5003;41911;52.362;4.978;2023-05-10T00:47:15;41.0;39.0;
55686;PMS5003;41911;52.362;4.978;2023-05-10T00:47:46;41.0;39.0;
55686;PMS5003;41911;52.362;4.978;2023-05-10T00:48:17;38.0;38.0;
55686;PMS5003;41911;52.362;4.978;2023-05-10T00:48:49;45.0;44.0;
55686;PMS5003;41911;52.362;4.978;2023-05-10T00:49:20;47.0;44.0;
55686;PMS5003;41911;52.362;4.978;2023-05-10T00:49:51;40.0;40.0;
55686;PMS5003;41911;52.362;4.978;2023-05-10T00:50:22;38.0;38.0;
55686;PMS5003;41911;52.362;4.978;2023-05-10T00:50:53;39.0;36.0;
55686;PMS5003;41911;52.362;4.978;2023-05-10T00:51:24;38.0;36.0;
55686;PMS5003;41911;52.362;4.978;2023-05-10T00:51:55;42.0;42.0;
55686;PMS5003;41911;52.362;4.978;2023-05-10T00:52:26;40.0;39.0;
55686;PMS5003;41911;52.362;4.978;2023-05-10T00:52:59;37.0;35.0;
55686;PMS5003;41911;52.362;4.978;2023-05-10T00:53:31;39.0;38.0;
55686;PMS5003;41911;52.362;4.978;2023-05-10T00:54:02;39.0;36.0;
55686;PMS5003;41911;52.362;4.978;2023-05-10T00:54:33;42.0;40.0;
55686;PMS5003;41911;52.362;4.978;2023-05-10T00:55:06;33.0;32.0;
55686;PMS5003;41911;52.362;4.978;2023-05-10T00:55:37;38.0;37.0;
55686;PMS5003;41911;52.362;4.978;2023-05-10T00:56:08;36.0;35.0;
55686;PMS5003;41911;52.362;4.978;2023-05-10T00:56:39;35.0;34.0;
55686;PMS5003;41911;52.362;4.978;2023-05-10T00:57:11;33.0;33.0;
55686;PMS5003;41911;52.362;4.978;2023-05-10T00:57:42;35.0;35.0;
55686;PMS5003;41911;52.362;4.978;2023-05-10T00:58:13;37.0;36.0;
55686;PMS5003;41911;52.362;4.978;2023-05-10T00:58:44;41.0;41.0;
55686;PMS5003;41911;52.362;4.978;2023-05-10T00:59:15;40.0;39.0;
55686;PMS5003;41911;52.362;4.978;2023-05-10T00:59:46;36.0;35.0;
55686;PMS5003;41911;52.362;4.978;2023-05-10T01:00:18;40.0;38.0;
55686;PMS5003;41911;52.362;4.978;2023-05-10T01:00:49;39.0;36.0;
55686;PMS5003;41911;52.362;4.978;2023-05-10T01:01:21;42.0;39.0;
55686;PMS5003;41911;52.362;4.978;2023-05-10T01:01:52;37.0;35.0;
55686;PMS5003;41911;52.362;4.978;2023-05-10T01:02:23;30.0;30.0;
55686;PMS5003;41911;52.362;4.978;2023-05-10T01:02:54;34.0;34.0;
55686;PMS5003;41911;52.362;4.978;2023-05-10T01:03:26;33.0;30.0;
55686;PMS5003;41911;52.362;4.978;2023-05-10T01:03:57;34.0;32.0;
55686;PMS5003;41911;52.362;4.978;2023-05-10T01:04:29;36.0;35.0;
55686;PMS5003;41911;52.362;4.978;2023-05-10T01:05:00;33.0;32.0;
55686;PMS5003;41911;52.362;4.978;2023-05-10T01:05:32;38.0;37.0;
55686;PMS5003;41911;52.362;4.978;2023-05-10T01:06:04;38.0;38.0;
55686;PMS5003;41911;52.362;4.978;2023-05-10T01:06:36;34.0;33.0;
55686;PMS5003;41911;52.362;4.978;2023-05-10T01:07:07;35.0;34.0;
55686;PMS5003;41911;52.362;4.978;2023-05-10T01:07:39;36.0;34.0;
55686;PMS5003;41911;52.362;4.978;2023-05-10T01:08:10;38.0;37.0;
55686;PMS5003;41911;52.362;4.978;2023-05-10T01:08:41;37.0;34.0;
55686;PMS5003;41911;52.362;4.978;2023-05-10T01:09:12;41.0;39.0;
55686;PMS5003;41911;52.362;4.978;2023-05-10T01:09:43;31.0;31.0;
55686;PMS5003;41911;52.362;4.978;2023-05-10T01:10:14;36.0;34.0;
55686;PMS5003;41911;52.362;4.978;2023-05-10T01:10:45;32.0;32.0;
55686;PMS5003;41911;52.362;4.978;2023-05-10T01:11:16;28.0;28.0;
55686;PMS5003;41911;52.362;4.978;2023-05-10T01:11:48;30.0;28.0;
55686;PMS5003;41911;52.362;4.978;2023-05-10T01:12:19;30.0;30.0;
55686;PMS5003;41911;52.362;4.978;2023-05-10T01:12:50;33.0;32.0;
55686;PMS5003;41911;52.362;4.978;2023-05-10T01:13:26;35.0;32.0;
55686;PMS5003;41911;52.362;4.978;2023-05-10T01:14:03;35.0;33.0;
55686;PMS5003;41911;52.362;4.978;2023-05-10T01:14:34;37.0;37.0;
55686;PMS5003;41911;52.362;4.978;2023-05-10T01:15:06;30.0;28.0;
55686;PMS5003;41911;52.362;4.978;2023-05-10T01:15:39;31.0;31.0;
55686;PMS5003;41911;52.362;4.978;2023-05-10T01:16:11;36.0;35.0;
55686;PMS5003;41911;52.362;4.978;2023-05-10T01:16:42;43.0;40.0;
55686;PMS5003;41911;52.362;4.978;2023-05-10T01:17:16;37.0;35.0;
55686;PMS5003;41911;52.362;4.978;2023-05-10T01:17:47;32.0;32.0;
55686;PMS5003;41911;52.362;4.978;2023-05-10T01:18:19;36.0;36.0;
55686;PMS5003;41911;52.362;4.978;2023-05-10T01:18:51;34.0;34.0;
55686;PMS5003;41911;52.362;4.978;2023-05-10T01:19:24;28.0;27.0;
55686;PMS5003;41911;52.362;4.978;2023-05-10T01:19:56;34.0;32.0;
55686;PMS5003;41911;52.362;4.978;2023-05-10T01:20:28;31.0;31.0;
55686;PMS5003;41911;52.362;4.978;2023-05-10T01:21:11;33.0;31.0;
55686;PMS5003;41911;52.362;4.978;2023-05-10T01:21:51;37.0;36.0;
55686;PMS5003;41911;52.362;4.978;2023-05-10T01:22:39;34.0;33.0;
55686;PMS5003;41911;52.362;4.978;2023-05-10T01:23:42;34.0;34.0;
55686;PMS5003;41911;52.362;4.978;2023-05-10T01:24:28;41.0;40.0;
55686;PMS5003;41911;52.362;4.978;2023-05-10T01:26:02;45.0;43.0;
55686;PMS5003;41911;52.362;4.978;2023-05-10T01:27:00;46.0;45.0;
55686;PMS5003;41911;52.362;4.978;2023-05-10T01:27:54;39.0;37.0;
55686;PMS5003;41911;52.362;4.978;2023-05-10T01:29:11;39.0;38.0;
55686;PMS5003;41911;52.362;4.978;2023-05-10T01:30:08;46.0;45.0;
55686;PMS5003;41911;52.362;4.978;2023-05-10T01:31:22;35.0;35.0;
55686;PMS5003;41911;52.362;4.978;2023-05-10T01:32:08;40.0;39.0;
55686;PMS5003;41911;52.362;4.978;2023-05-10T01:32:55;41.0;38.0;
55686;PMS5003;41911;52.362;4.978;2023-05-10T01:33:32;40.0;36.0;
55686;PMS5003;41911;52.362;4.978;2023-05-10T01:34:09;40.0;39.0;
55686;PMS5003;41911;52.362;4.978;2023-05-10T01:34:51;37.0;36.0;
55686;PMS5003;41911;52.362;4.978;2023-05-10T01:35:30;38.0;35.0;
55686;PMS5003;41911;52.362;4.978;2023-05-10T01:36:08;43.0;40.0;
55686;PMS5003;41911;52.362;4.978;2023-05-10T01:36:51;42.0;40.0;
55686;PMS5003;41911;52.362;4.978;2023-05-10T01:37:32;40.0;38.0;
55686;PMS5003;41911;52.362;4.978;2023-05-10T01:38:12;41.0;41.0;
55686;PMS5003;41911;52.362;4.978;2023-05-10T01:38:49;36.0;36.0;
55686;PMS5003;41911;52.362;4.978;2023-05-10T01:39:24;35.0;35.0;
55686;PMS5003;41911;52.362;4.978;2023-05-10T01:40:01;39.0;39.0;
55686;PMS5003;41911;52.362;4.978;2023-05-10T01:40:39;39.0;39.0;
55686;PMS5003;41911;52.362;4.978;2023-05-10T01:41:18;42.0;40.0;
55686;PMS5003;41911;52.362;4.978;2023-05-10T01:41:55;37.0;36.0;
55686;PMS5003;41911;52.362;4.978;2023-05-10T01:42:35;40.0;39.0;
55686;PMS5003;41911;52.362;4.978;2023-05-10T01:43:13;45.0;44.0;
55686;PMS5003;41911;52.362;4.978;2023-05-10T01:43:53;39.0;36.0;
55686;PMS5003;41911;52.362;4.978;2023-05-10T01:44:34;40.0;38.0;
55686;PMS5003;41911;52.362;4.978;2023-05-10T01:45:11;44.0;42.0;
55686;PMS5003;41911;52.362;4.978;2023-05-10T01:45:55;46.0;46.0;
55686;PMS5003;41911;52.362;4.978;2023-05-10T01:46:32;46.0;43.0;
55686;PMS5003;41911;52.362;4.978;2023-05-10T01:47:07;40.0;38.0;
55686;PMS5003;41911;52.362;4.978;2023-05-10T01:47:41;40.0;39.0;
55686;PMS5003;41911;52.362;4.978;2023-05-10T01:48:14;39.0;39.0;
55686;PMS5003;41911;52.362;4.978;2023-05-10T01:48:47;43.0;40.0;
55686;PMS5003;41911;52.362;4.978;2023-05-10T01:49:23;41.0;39.0;
55686;PMS5003;41911;52.362;4.978;2023-05-10T01:49:56;37.0;36.0;
55686;PMS5003;41911;52.362;4.978;2023-05-10T01:50:32;37.0;37.0;
55686;PMS5003;41911;52.362;4.978;2023-05-10T01:51:05;38.0;36.0;
55686;PMS5003;41911;52.362;4.978;2023-05-10T01:51:39;40.0;40.0;
55686;PMS5003;41911;52.362;4.978;2023-05-10T01:52:15;34.0;33.0;
55686;PMS5003;41911;52.362;4.978;2023-05-10T01:52:53;38.0;38.0;
55686;PMS5003;41911;52.362;4.978;2023-05-10T01:53:26;40.0;38.0;
55686;PMS5003;41911;52.362;4.978;2023-05-10T01:53:59;43.0;41.0;
55686;PMS5003;41911;52.362;4.978;2023-05-10T01:54:32;41.0;38.0;
55686;PMS5003;41911;52.362;4.978;2023-05-10T01:55:06;44.0;42.0;
55686;PMS5003;41911;52.362;4.978;2023-05-10T01:55:41;40.0;39.0;
55686;PMS5003;41911;52.362;4.978;2023-05-10T01:56:16;36.0;34.0;
55686;PMS5003;41911;52.362;4.978;2023-05-10T01:56:55;35.0;35.0;
55686;PMS5003;41911;52.362;4.978;2023-05-10T01:57:31;33.0;33.0;
55686;PMS5003;41911;52.362;4.978;2023-05-10T01:58:05;37.0;35.0;
55686;PMS5003;41911;52.362;4.978;2023-05-10T01:58:43;39.0;38.0;
55686;PMS5003;41911;52.362;4.978;2023-05-10T01:59:18;46.0;44.0;
55686;PMS5003;41911;52.362;4.978;2023-05-10T01:59:50;40.0;39.0;
55686;PMS5003;41911;52.362;4.978;2023-05-10T02:00:22;37.0;35.0;
55686;PMS5003;41911;52.362;4.978;2023-05-10T02:00:54;35.0;35.0;
55686;PMS5003;41911;52.362;4.978;2023-05-10T02:01:28;42.0;41.0;
55686;PMS5003;41911;52.362;4.978;2023-05-10T02:01:59;42.0;40.0;
55686;PMS5003;41911;52.362;4.978;2023-05-10T02:02:33;40.0;38.0;
55686;PMS5003;41911;52.362;4.978;2023-05-10T02:03:07;36.0;35.0;
55686;PMS5003;41911;52.362;4.978;2023-05-10T02:03:40;46.0;44.0;
55686;PMS5003;41911;52.362;4.978;2023-05-10T02:04:13;39.0;39.0;
55686;PMS5003;41911;52.362;4.978;2023-05-10T02:04:47;38.0;37.0;
55686;PMS5003;41911;52.362;4.978;2023-05-10T02:05:20;41.0;39.0;
55686;PMS5003;41911;52.362;4.978;2023-05-10T02:05:53;43.0;41.0;
55686;PMS5003;41911;52.362;4.978;2023-05-10T02:06:26;35.0;34.0;
55686;PMS5003;41911;52.362;4.978;2023-05-10T02:06:57;40.0;38.0;
55686;PMS5003;41911;52.362;4.978;2023-05-10T02:07:28;38.0;38.0;
55686;PMS5003;41911;52.362;4.978;2023-05-10T02:08:01;44.0;42.0;
55686;PMS5003;41911;52.362;4.978;2023-05-10T02:08:36;38.0;37.0;
55686;PMS5003;41911;52.362;4.978;2023-05-10T02:09:09;41.0;39.0;
55686;PMS5003;41911;52.362;4.978;2023-05-10T02:09:42;44.0;42.0;
55686;PMS5003;41911;52.362;4.978;2023-05-10T02:10:15;39.0;39.0;
55686;PMS5003;41911;52.362;4.978;2023-05-10T02:10:48;43.0;40.0;
55686;PMS5003;41911;52.362;4.978;2023-05-10T02:11:21;45.0;43.0;
55686;PMS5003;41911;52.362;4.978;2023-05-10T02:11:55;44.0;44.0;
55686;PMS5003;41911;52.362;4.978;2023-05-10T02:12:28;41.0;40.0;
55686;PMS5003;41911;52.362;4.978;2023-05-10T02:13:02;43.0;42.0;
55686;PMS5003;41911;52.362;4.978;2023-05-10T02:13:36;39.0;38.0;
55686;PMS5003;41911;52.362;4.978;2023-05-10T02:14:09;42.0;42.0;
55686;PMS5003;41911;52.362;4.978;2023-05-10T02:14:41;45.0;42.0;
55686;PMS5003;41911;52.362;4.978;2023-05-10T02:15:15;45.0;43.0;
55686;PMS5003;41911;52.362;4.978;2023-05-10T02:15:50;39.0;39.0;
55686;PMS5003;41911;52.362;4.978;2023-05-10T02:16:23;42.0;41.0;
55686;PMS5003;41911;52.362;4.978;2023-05-10T02:16:56;39.0;37.0;
55686;PMS5003;41911;52.362;4.978;2023-05-10T02:17:30;42.0;41.0;
55686;PMS5003;41911;52.362;4.978;2023-05-10T02:18:01;40.0;38.0;
55686;PMS5003;41911;52.362;4.978;2023-05-10T02:18:34;40.0;40.0;
55686;PMS5003;41911;52.362;4.978;2023-05-10T02:19:06;39.0;37.0;
55686;PMS5003;41911;52.362;4.978;2023-05-10T02:19:40;44.0;44.0;
55686;PMS5003;41911;52.362;4.978;2023-05-10T02:20:13;44.0;42.0;
55686;PMS5003;41911;52.362;4.978;2023-05-10T02:20:46;42.0;41.0;
55686;PMS5003;41911;52.362;4.978;2023-05-10T02:21:18;44.0;42.0;
55686;PMS5003;41911;52.362;4.978;2023-05-10T02:21:50;44.0;43.0;
55686;PMS5003;41911;52.362;4.978;2023-05-10T02:22:22;42.0;41.0;
55686;PMS5003;41911;52.362;4.978;2023-05-10T02:22:54;46.0;43.0;
55686;PMS5003;41911;52.362;4.978;2023-05-10T02:23:27;45.0;43.0;
55686;PMS5003;41911;52.362;4.978;2023-05-10T02:23:59;45.0;42.0;
55686;PMS5003;41911;52.362;4.978;2023-05-10T02:24:33;52.0;49.0;
55686;PMS5003;41911;52.362;4.978;2023-05-10T02:25:06;47.0;45.0;
55686;PMS5003;41911;52.362;4.978;2023-05-10T02:25:39;50.0;47.0;
55686;PMS5003;41911;52.362;4.978;2023-05-10T02:26:11;45.0;44.0;
55686;PMS5003;41911;52.362;4.978;2023-05-10T02:26:44;52.0;48.0;
55686;PMS5003;41911;52.362;4.978;2023-05-10T02:27:18;46.0;45.0;
55686;PMS5003;41911;52.362;4.978;2023-05-10T02:27:51;44.0;44.0;
55686;PMS5003;41911;52.362;4.978;2023-05-10T02:28:24;45.0;41.0;
55686;PMS5003;41911;52.362;4.978;2023-05-10T02:28:57;46.0;44.0;
55686;PMS5003;41911;52.362;4.978;2023-05-10T02:29:29;49.0;46.0;
55686;PMS5003;41911;52.362;4.978;2023-05-10T02:30:02;50.0;46.0;
55686;PMS5003;41911;52.362;4.978;2023-05-10T02:30:35;48.0;47.0;
55686;PMS5003;41911;52.362;4.978;2023-05-10T02:31:07;48.0;46.0;
55686;PMS5003;41911;52.362;4.978;2023-05-10T02:31:39;43.0;43.0;
55686;PMS5003;41911;52.362;4.978;2023-05-10T02:32:11;47.0;44.0;
55686;PMS5003;41911;52.362;4.978;2023-05-10T02:32:43;53.0;49.0;
55686;PMS5003;41911;52.362;4.978;2023-05-10T02:33:16;57.0;52.0;
55686;PMS5003;41911;52.362;4.978;2023-05-10T02:33:48;52.0;51.0;
55686;PMS5003;41911;52.362;4.978;2023-05-10T02:34:21;48.0;45.0;
55686;PMS5003;41911;52.362;4.978;2023-05-10T02:34:53;46.0;44.0;
55686;PMS5003;41911;52.362;4.978;2023-05-10T02:35:26;51.0;49.0;
55686;PMS5003;41911;52.362;4.978;2023-05-10T02:35:57;43.0;41.0;
55686;PMS5003;41911;52.362;4.978;2023-05-10T02:36:29;48.0;47.0;
55686;PMS5003;41911;52.362;4.978;2023-05-10T02:37:00;52.0;51.0;
55686;PMS5003;41911;52.362;4.978;2023-05-10T02:37:32;45.0;45.0;
55686;PMS5003;41911;52.362;4.978;2023-05-10T02:38:05;52.0;50.0;
55686;PMS5003;41911;52.362;4.978;2023-05-10T02:38:37;48.0;47.0;
55686;PMS5003;41911;52.362;4.978;2023-05-10T02:39:09;54.0;48.0;
55686;PMS5003;41911;52.362;4.978;2023-05-10T02:39:43;51.0;48.0;
55686;PMS5003;41911;52.362;4.978;2023-05-10T02:40:15;49.0;46.0;
55686;PMS5003;41911;52.362;4.978;2023-05-10T02:40:47;46.0;43.0;
55686;PMS5003;41911;52.362;4.978;2023-05-10T02:41:19;48.0;46.0;
55686;PMS5003;41911;52.362;4.978;2023-05-10T02:41:51;49.0;48.0;
55686;PMS5003;41911;52.362;4.978;2023-05-10T02:42:24;51.0;48.0;
55686;PMS5003;41911;52.362;4.978;2023-05-10T02:42:57;53.0;50.0;
55686;PMS5003;41911;52.362;4.978;2023-05-10T02:43:30;53.0;48.0;
55686;PMS5003;41911;52.362;4.978;2023-05-10T02:44:03;47.0;46.0;
55686;PMS5003;41911;52.362;4.978;2023-05-10T02:44:38;50.0;48.0;
55686;PMS5003;41911;52.362;4.978;2023-05-10T02:45:12;48.0;44.0;
55686;PMS5003;41911;52.362;4.978;2023-05-10T02:45:46;51.0;44.0;
55686;PMS5003;41911;52.362;4.978;2023-05-10T02:46:18;53.0;49.0;
55686;PMS5003;41911;52.362;4.978;2023-05-10T02:46:49;50.0;48.0;
55686;PMS5003;41911;52.362;4.978;2023-05-10T02:47:20;47.0;44.0;
55686;PMS5003;41911;52.362;4.978;2023-05-10T02:47:51;39.0;39.0;
55686;PMS5003;41911;52.362;4.978;2023-05-10T02:48:22;50.0;48.0;
55686;PMS5003;41911;52.362;4.978;2023-05-10T02:48:53;48.0;47.0;
55686;PMS5003;41911;52.362;4.978;2023-05-10T02:49:24;51.0;45.0;
55686;PMS5003;41911;52.362;4.978;2023-05-10T02:49:55;51.0;46.0;
55686;PMS5003;41911;52.362;4.978;2023-05-10T02:50:27;43.0;41.0;
55686;PMS5003;41911;52.362;4.978;2023-05-10T02:51:00;45.0;43.0;
55686;PMS5003;41911;52.362;4.978;2023-05-10T02:51:35;47.0;45.0;
55686;PMS5003;41911;52.362;4.978;2023-05-10T02:52:11;40.0;40.0;
55686;PMS5003;41911;52.362;4.978;2023-05-10T02:52:47;42.0;40.0;
55686;PMS5003;41911;52.362;4.978;2023-05-10T02:53:22;37.0;35.0;
55686;PMS5003;41911;52.362;4.978;2023-05-10T02:54:01;42.0;40.0;
55686;PMS5003;41911;52.362;4.978;2023-05-10T02:54:40;40.0;37.0;
55686;PMS5003;41911;52.362;4.978;2023-05-10T02:55:14;38.0;35.0;
55686;PMS5003;41911;52.362;4.978;2023-05-10T02:55:51;37.0;34.0;
55686;PMS5003;41911;52.362;4.978;2023-05-10T02:56:25;40.0;38.0;
55686;PMS5003;41911;52.362;4.978;2023-05-10T02:57:32;45.0;44.0;
55686;PMS5003;41911;52.362;4.978;2023-05-10T02:58:04;46.0;42.0;
55686;PMS5003;41911;52.362;4.978;2023-05-10T02:58:36;37.0;36.0;
55686;PMS5003;41911;52.362;4.978;2023-05-10T02:59:07;35.0;33.0;
55686;PMS5003;41911;52.362;4.978;2023-05-10T02:59:38;44.0;40.0;
55686;PMS5003;41911;52.362;4.978;2023-05-10T03:00:09;44.0;41.0;
55686;PMS5003;41911;52.362;4.978;2023-05-10T03:00:41;36.0;34.0;
55686;PMS5003;41911;52.362;4.978;2023-05-10T03:01:12;36.0;36.0;
55686;PMS5003;41911;52.362;4.978;2023-05-10T03:01:43;33.0;32.0;
55686;PMS5003;41911;52.362;4.978;2023-05-10T03:02:14;36.0;33.0;
55686;PMS5003;41911;52.362;4.978;2023-05-10T03:02:45;37.0;36.0;
55686;PMS5003;41911;52.362;4.978;2023-05-10T03:03:16;39.0;37.0;
55686;PMS5003;41911;52.362;4.978;2023-05-10T03:03:47;35.0;33.0;
55686;PMS5003;41911;52.362;4.978;2023-05-10T03:04:18;38.0;36.0;
55686;PMS5003;41911;52.362;4.978;2023-05-10T03:04:51;29.0;28.0;
55686;PMS5003;41911;52.362;4.978;2023-05-10T03:05:22;36.0;33.0;
55686;PMS5003;41911;52.362;4.978;2023-05-10T03:05:53;35.0;32.0;
55686;PMS5003;41911;52.362;4.978;2023-05-10T03:06:24;40.0;40.0;
55686;PMS5003;41911;52.362;4.978;2023-05-10T03:06:55;35.0;33.0;
55686;PMS5003;41911;52.362;4.978;2023-05-10T03:07:26;30.0;30.0;
55686;PMS5003;41911;52.362;4.978;2023-05-10T03:07:57;31.0;30.0;
55686;PMS5003;41911;52.362;4.978;2023-05-10T03:08:29;35.0;33.0;
55686;PMS5003;41911;52.362;4.978;2023-05-10T03:09:01;34.0;33.0;
55686;PMS5003;41911;52.362;4.978;2023-05-10T03:09:33;38.0;36.0;
55686;PMS5003;41911;52.362;4.978;2023-05-10T03:10:05;37.0;35.0;
55686;PMS5003;41911;52.362;4.978;2023-05-10T03:10:38;40.0;37.0;
55686;PMS5003;41911;52.362;4.978;2023-05-10T03:11:23;39.0;37.0;
55686;PMS5003;41911;52.362;4.978;2023-05-10T03:12:10;41.0;40.0;
55686;PMS5003;41911;52.362;4.978;2023-05-10T03:12:49;39.0;37.0;
55686;PMS5003;41911;52.362;4.978;2023-05-10T03:13:31;41.0;39.0;
55686;PMS5003;41911;52.362;4.978;2023-05-10T03:14:13;38.0;37.0;
55686;PMS5003;41911;52.362;4.978;2023-05-10T03:15:01;40.0;37.0;
55686;PMS5003;41911;52.362;4.978;2023-05-10T03:15:42;37.0;37.0;
55686;PMS5003;41911;52.362;4.978;2023-05-10T03:16:25;39.0;38.0;
55686;PMS5003;41911;52.362;4.978;2023-05-10T03:17:06;46.0;44.0;
55686;PMS5003;41911;52.362;4.978;2023-05-10T03:17:45;35.0;34.0;
55686;PMS5003;41911;52.362;4.978;2023-05-10T03:18:22;37.0;36.0;
55686;PMS5003;41911;52.362;4.978;2023-05-10T03:19:01;44.0;41.0;
55686;PMS5003;41911;52.362;4.978;2023-05-10T03:19:38;37.0;37.0;
55686;PMS5003;41911;52.362;4.978;2023-05-10T03:20:20;37.0;36.0;
55686;PMS5003;41911;52.362;4.978;2023-05-10T03:20:55;41.0;40.0;
55686;PMS5003;41911;52.362;4.978;2023-05-10T03:21:31;43.0;41.0;
55686;PMS5003;41911;52.362;4.978;2023-05-10T03:22:08;36.0;35.0;
55686;PMS5003;41911;52.362;4.978;2023-05-10T03:22:44;35.0;33.0;
55686;PMS5003;41911;52.362;4.978;2023-05-10T03:23:22;35.0;33.0;
55686;PMS5003;41911;52.362;4.978;2023-05-10T03:24:02;40.0;38.0;
55686;PMS5003;41911;52.362;4.978;2023-05-10T03:24:37;37.0;37.0;
55686;PMS5003;41911;52.362;4.978;2023-05-10T03:25:11;34.0;32.0;
55686;PMS5003;41911;52.362;4.978;2023-05-10T03:25:46;39.0;36.0;
55686;PMS5003;41911;52.362;4.978;2023-05-10T03:26:20;37.0;36.0;
55686;PMS5003;41911;52.362;4.978;2023-05-10T03:26:56;41.0;40.0;
55686;PMS5003;41911;52.362;4.978;2023-05-10T03:27:29;40.0;38.0;
55686;PMS5003;41911;52.362;4.978;2023-05-10T03:28:02;39.0;38.0;
55686;PMS5003;41911;52.362;4.978;2023-05-10T03:28:35;38.0;35.0;
55686;PMS5003;41911;52.362;4.978;2023-05-10T03:29:07;42.0;41.0;
55686;PMS5003;41911;52.362;4.978;2023-05-10T03:29:40;42.0;39.0;
55686;PMS5003;41911;52.362;4.978;2023-05-10T03:30:13;41.0;41.0;
55686;PMS5003;41911;52.362;4.978;2023-05-10T03:30:46;44.0;42.0;
55686;PMS5003;41911;52.362;4.978;2023-05-10T03:31:17;41.0;38.0;
55686;PMS5003;41911;52.362;4.978;2023-05-10T03:31:49;41.0;38.0;